Time;durP1;ratioP1;P1;durP2;ratioP2;P2;SDS_P1;SDS_P2;PMS_P1;PMS_P2;Temp;Humidity;BMP_temperature;BMP_pressure;BME280_temperature;BME280_humidity;BME280_pressure;Samples;Min_cycle;Max_cycle;Signal;HPM_P1;HPM_P2
2024/01/19 00:01:18;;;;;;;29.15;26.15;;;;;;;-4.41;100.00;101233.53;5067962;28;20029;-75
2024/01/19 00:03:44;;;;;;;32.33;26.73;;;;;;;-4.43;100.00;101243.00;5052015;28;20033;-75
2024/01/19 00:06:10;;;;;;;32.50;27.63;;;;;;;-4.50;100.00;101242.03;5038998;28;20372;-75
2024/01/19 00:08:35;;;;;;;34.45;27.80;;;;;;;-4.48;100.00;101242.06;5046211;28;20062;-75
2024/01/19 00:11:00;;;;;;;34.00;28.40;;;;;;;-4.45;100.00;101252.50;5051309;28;20037;-75
2024/01/19 00:13:26;;;;;;;35.25;28.55;;;;;;;-4.51;100.00;101235.09;5038565;28;20463;-75
2024/01/19 00:15:52;;;;;;;34.42;28.70;;;;;;;-4.44;100.00;101246.47;5044834;28;20035;-75
2024/01/19 00:18:18;;;;;;;11.70;7.70;;;;;;;-4.47;100.00;101255.09;5041243;28;20091;-76
2024/01/19 00:20:43;;;;;;;35.20;29.40;;;;;;;-4.58;100.00;101233.25;5033118;28;20441;-76
2024/01/19 00:23:09;;;;;;;35.58;30.83;;;;;;;-4.51;100.00;101230.78;5035672;28;20036;-75
2024/01/19 00:25:34;;;;;;;34.90;31.02;;;;;;;-4.44;100.00;101236.94;5033401;28;20022;-74
2024/01/19 00:28:00;;;;;;;36.13;32.20;;;;;;;-4.38;100.00;101254.38;5037896;28;20018;-74
2024/01/19 00:30:25;;;;;;;39.95;30.67;;;;;;;-4.48;100.00;101231.66;5035461;28;20137;-75
2024/01/19 00:32:50;;;;;;;36.75;31.08;;;;;;;-4.40;100.00;101253.44;5034930;28;20037;-75
2024/01/19 00:35:16;;;;;;;38.13;30.27;;;;;;;-4.39;100.00;101253.50;5038522;28;20467;-75
2024/01/19 00:37:41;;;;;;;37.70;31.63;;;;;;;-4.36;100.00;101263.06;5037992;28;20046;-75
2024/01/19 00:40:11;;;;;;;34.10;29.35;;;;;;;-4.36;100.00;101270.84;5034870;28;20104;-75
2024/01/19 00:42:41;;;;;;;42.15;31.65;;;;;;;-4.33;100.00;101260.50;5038630;28;20044;-75
2024/01/19 00:45:07;;;;;;;12.48;8.65;;;;;;;-4.32;100.00;101272.66;5042766;28;20029;-76
2024/01/19 00:47:34;;;;;;;38.30;30.48;;;;;;;-4.38;100.00;101259.56;5039233;28;20025;-75
2024/01/19 00:50:00;;;;;;;36.38;31.13;;;;;;;-4.44;100.00;101255.13;5033930;28;20033;-76
2024/01/19 00:52:26;;;;;;;39.60;32.00;;;;;;;-4.41;100.00;101262.97;5026994;28;20029;-77
2024/01/19 00:54:51;;;;;;;35.22;30.58;;;;;;;-4.39;100.00;101263.91;5034034;28;20513;-74
2024/01/19 00:57:16;;;;;;;37.42;31.10;;;;;;;-4.46;100.00;101261.16;5024971;28;20471;-75
2024/01/19 00:59:42;;;;;;;36.83;30.60;;;;;;;-4.46;100.00;101276.75;5033896;28;20041;-75
2024/01/19 01:02:07;;;;;;;35.88;31.15;;;;;;;-4.46;100.00;101269.81;5033622;28;20628;-76
2024/01/19 01:04:32;;;;;;;39.63;31.98;;;;;;;-4.44;100.00;101275.03;5036151;28;20092;-76
2024/01/19 01:06:58;;;;;;;37.40;31.55;;;;;;;-4.42;100.00;101273.34;5030020;28;20585;-76
2024/01/19 01:09:23;;;;;;;33.47;29.23;;;;;;;-4.42;100.00;101276.81;5038805;28;20533;-76
2024/01/19 01:11:48;;;;;;;40.20;30.75;;;;;;;-4.39;100.00;101275.97;5036875;28;20033;-76
2024/01/19 01:14:15;;;;;;;36.33;30.50;;;;;;;-4.52;100.00;101267.97;5032556;28;20499;-75
2024/01/19 01:16:41;;;;;;;35.00;30.17;;;;;;;-4.46;100.00;101277.63;5035894;28;20029;-76
2024/01/19 01:19:06;;;;;;;32.95;29.35;;;;;;;-4.44;100.00;101265.50;5035232;28;20573;-76
2024/01/19 01:21:31;;;;;;;35.55;30.80;;;;;;;-4.42;100.00;101261.22;5030258;28;20112;-74
2024/01/19 01:23:57;;;;;;;36.58;29.65;;;;;;;-4.41;100.00;101268.19;5039696;28;20316;-74
2024/01/19 01:26:22;;;;;;;35.60;29.75;;;;;;;-4.40;100.00;101263.84;5044919;28;20109;-74
2024/01/19 01:28:47;;;;;;;35.75;30.45;;;;;;;-4.43;100.00;101271.59;5039989;28;20090;-74
2024/01/19 01:31:13;;;;;;;33.13;29.17;;;;;;;-4.48;100.00;101278.44;5030850;28;20029;-73
2024/01/19 01:33:38;;;;;;;34.53;28.08;;;;;;;-4.52;100.00;101282.69;5036922;28;20023;-74
2024/01/19 01:36:03;;;;;;;32.95;27.70;;;;;;;-4.50;100.00;101283.59;5040457;28;20037;-74
2024/01/19 01:38:29;;;;;;;35.10;28.40;;;;;;;-4.53;100.00;101296.53;5045202;28;20077;-75
2024/01/19 01:40:54;;;;;;;33.45;28.23;;;;;;;-4.55;100.00;101287.84;5056106;28;20449;-74
2024/01/19 01:43:24;;;;;;;36.83;28.77;;;;;;;-4.54;100.00;101298.25;5037839;28;20056;-74
2024/01/19 01:45:50;;;;;;;35.05;27.23;;;;;;;-4.59;100.00;101297.31;5043900;28;20024;-75
2024/01/19 01:48:16;;;;;;;32.70;28.10;;;;;;;-4.62;100.00;101297.25;5036406;28;20095;-75
2024/01/19 01:50:41;;;;;;;30.80;26.55;;;;;;;-4.72;100.00;101304.81;5036157;28;20029;-75
2024/01/19 01:53:07;;;;;;;31.95;27.10;;;;;;;-4.65;100.00;101311.91;5039954;28;20049;-75
2024/01/19 01:55:32;;;;;;;33.88;26.33;;;;;;;-4.83;100.00;101313.31;5043780;28;20017;-75
2024/01/19 01:57:58;;;;;;;31.50;26.13;;;;;;;-4.76;100.00;101303.94;5041118;28;20274;-75
2024/01/19 02:00:29;;;;;;;30.98;25.58;;;;;;;-4.81;100.00;101315.91;5042997;28;20565;-75
2024/01/19 02:02:57;;;;;;;30.77;25.75;;;;;;;-4.84;100.00;101323.69;5032819;28;20041;-74
2024/01/19 02:05:23;;;;;;;30.98;25.50;;;;;;;-5.00;100.00;101304.31;5053473;28;20035;-74
2024/01/19 02:07:48;;;;;;;32.55;26.70;;;;;;;-4.95;100.00;101307.88;5044470;28;20040;-75
2024/01/19 02:10:14;;;;;;;32.05;25.38;;;;;;;-4.94;100.00;101330.38;5039216;28;20557;-75
2024/01/19 02:12:39;;;;;;;30.67;25.73;;;;;;;-5.09;100.00;101327.50;5040954;28;20033;-75
2024/01/19 02:15:05;;;;;;;33.72;23.98;;;;;;;-5.08;100.00;101324.06;5046820;28;20056;-74
2024/01/19 02:17:30;;;;;;;28.60;24.65;;;;;;;-5.16;100.00;101336.88;5046056;28;20049;-75
2024/01/19 02:19:56;;;;;;;8.40;6.10;;;;;;;-5.16;100.00;101328.22;5038180;28;20029;-75
2024/01/19 02:22:21;;;;;;;28.88;23.70;;;;;;;-5.12;100.00;101341.28;5038706;28;20036;-76
2024/01/19 02:24:47;;;;;;;27.70;24.35;;;;;;;-5.14;100.00;101337.78;5029578;28;20033;-75
2024/01/19 02:27:13;;;;;;;33.75;26.02;;;;;;;-5.12;100.00;101348.19;5040867;28;20083;-75
2024/01/19 02:29:39;;;;;;;37.25;27.65;;;;;;;-5.12;100.00;101350.78;5039670;28;20032;-75
2024/01/19 02:32:04;;;;;;;34.20;26.77;;;;;;;-5.12;100.00;101356.84;5037363;28;20061;-75
2024/01/19 02:34:30;;;;;;;16.25;8.25;;;;;;;-5.19;100.00;101360.16;5032910;28;20116;-75
2024/01/19 02:36:55;;;;;;;9.68;7.63;;;;;;;-5.27;100.00;101356.50;5026175;28;20030;-75
2024/01/19 02:39:21;;;;;;;29.50;25.13;;;;;;;-5.19;100.00;101364.47;5027626;28;20486;-75
2024/01/19 02:41:46;;;;;;;15.57;8.82;;;;;;;-5.29;100.00;101360.81;5032024;28;20029;-75
2024/01/19 02:44:12;;;;;;;29.58;25.30;;;;;;;-5.29;100.00;101371.19;5045430;28;20202;-75
2024/01/19 02:46:38;;;;;;;29.42;24.75;;;;;;;-5.30;100.00;101372.91;5042839;28;20486;-73
2024/01/19 02:49:04;;;;;;;29.60;24.98;;;;;;;-5.28;100.00;101372.94;5040530;28;20037;-75
2024/01/19 02:51:30;;;;;;;27.88;24.60;;;;;;;-5.27;100.00;101380.78;5045844;28;20031;-75
2024/01/19 02:53:55;;;;;;;27.42;23.55;;;;;;;-5.32;100.00;101376.31;5046183;28;20487;-75
2024/01/19 02:56:21;;;;;;;27.30;23.95;;;;;;;-5.16;100.00;101382.72;5044841;28;20103;-73
2024/01/19 02:58:46;;;;;;;13.95;8.23;;;;;;;-5.24;100.00;101385.13;5030557;28;20127;-74
2024/01/19 03:01:12;;;;;;;10.98;7.25;;;;;;;-5.23;100.00;101388.59;5048178;28;20628;-75
2024/01/19 03:03:37;;;;;;;26.67;21.33;;;;;;;-5.16;100.00;101374.94;5062532;28;20020;-74
2024/01/19 03:06:03;;;;;;;27.45;24.35;;;;;;;-4.91;100.00;101390.16;5055760;28;20033;-75
2024/01/19 03:08:28;;;;;;;9.48;6.80;;;;;;;-4.94;100.00;101387.50;5051703;28;20037;-75
2024/01/19 03:10:55;;;;;;;26.13;23.27;;;;;;;-4.76;100.00;101366.25;5042454;28;20491;-75
2024/01/19 03:13:21;;;;;;;28.75;23.92;;;;;;;-4.63;100.00;101381.22;5040230;28;20214;-75
2024/01/19 03:15:46;;;;;;;34.03;25.63;;;;;;;-4.55;100.00;101391.78;5035753;28;20029;-75
2024/01/19 03:18:11;;;;;;;28.30;24.60;;;;;;;-4.46;100.00;101378.06;5031667;28;20036;-75
2024/01/19 03:20:37;;;;;;;29.42;25.58;;;;;;;-4.30;100.00;101385.31;5037374;28;20387;-75
2024/01/19 03:23:02;;;;;;;32.35;25.92;;;;;;;-4.27;100.00;101380.16;5044380;28;20491;-75
2024/01/19 03:25:28;;;;;;;9.23;6.38;;;;;;;-4.36;100.00;101385.19;5035611;28;20056;-75
2024/01/19 03:27:53;;;;;;;8.20;6.20;;;;;;;-4.26;100.00;101397.53;5042697;28;20422;-75
2024/01/19 03:30:20;;;;;;;33.20;25.80;;;;;;;-4.16;100.00;101385.56;5036336;28;20111;-74
2024/01/19 03:32:45;;;;;;;31.45;26.70;;;;;;;-4.06;100.00;101393.53;5036573;28;20033;-74
2024/01/19 03:35:11;;;;;;;32.70;27.23;;;;;;;-4.05;100.00;101402.22;5037634;28;20087;-74
2024/01/19 03:37:36;;;;;;;30.95;27.23;;;;;;;-3.97;100.00;101399.72;5034385;28;20041;-75
2024/01/19 03:40:05;;;;;;;14.43;6.82;;;;;;;-4.14;100.00;101384.75;5041990;28;20383;-75
2024/01/19 03:42:31;;;;;;;34.60;27.70;;;;;;;-3.96;100.00;101399.78;5040163;28;20166;-75
2024/01/19 03:44:56;;;;;;;36.40;28.05;;;;;;;-4.04;100.00;101396.19;5038343;28;20024;-76
2024/01/19 03:47:22;;;;;;;31.02;27.52;;;;;;;-4.16;100.00;101376.03;5040732;28;20452;-76
2024/01/19 03:49:47;;;;;;;36.13;29.80;;;;;;;-4.01;100.00;101401.44;5031528;28;20091;-76
2024/01/19 03:52:12;;;;;;;36.90;30.52;;;;;;;-4.02;100.00;101404.84;5038699;28;20021;-76
2024/01/19 03:54:38;;;;;;;36.13;31.15;;;;;;;-4.05;100.00;101399.63;5043355;28;20033;-76
2024/01/19 03:57:06;;;;;;;37.20;29.45;;;;;;;-4.07;100.00;101407.38;5039154;28;20402;-76
2024/01/19 03:59:31;;;;;;;36.83;30.40;;;;;;;-4.17;100.00;101409.81;5039304;28;20029;-76
2024/01/19 04:01:56;;;;;;;38.53;31.55;;;;;;;-4.05;100.00;101410.03;5041951;28;20055;-76
2024/01/19 04:04:23;;;;;;;36.53;32.13;;;;;;;-4.06;100.00;101414.31;5039568;28;20363;-76
2024/01/19 04:06:48;;;;;;;41.67;34.45;;;;;;;-4.08;100.00;101408.25;5033739;28;20128;-76
2024/01/19 04:09:16;;;;;;;44.05;37.17;;;;;;;-4.17;100.00;101402.88;5032375;28;20107;-77
2024/01/19 04:11:43;;;;;;;41.70;36.22;;;;;;;-4.03;100.00;101418.72;5036006;28;20107;-75
2024/01/19 04:14:08;;;;;;;45.92;37.03;;;;;;;-4.03;100.00;101418.72;5029208;28;20038;-76
2024/01/19 04:16:34;;;;;;;46.75;37.58;;;;;;;-4.06;100.00;101423.84;5035516;28;20017;-75
2024/01/19 04:18:59;;;;;;;46.20;38.63;;;;;;;-4.13;100.00;101417.69;5043297;28;20036;-75
2024/01/19 04:21:24;;;;;;;18.38;8.40;;;;;;;-4.11;100.00;101423.78;5030699;28;20033;-76
2024/01/19 04:23:50;;;;;;;48.45;41.17;;;;;;;-4.03;100.00;101414.38;5038850;28;20172;-76
2024/01/19 04:26:15;;;;;;;47.40;41.67;;;;;;;-4.03;100.00;101442.13;5035638;28;20045;-75
2024/01/19 04:28:40;;;;;;;52.33;44.78;;;;;;;-4.09;100.00;101437.69;5041010;28;20403;-75
2024/01/19 04:31:06;;;;;;;50.92;42.40;;;;;;;-4.13;100.00;101443.69;5034424;28;20029;-75
2024/01/19 04:33:32;;;;;;;52.08;43.65;;;;;;;-4.17;100.00;101451.41;5042656;28;20562;-75
2024/01/19 04:35:57;;;;;;;55.95;45.53;;;;;;;-4.26;100.00;101450.38;5038349;28;20025;-75
2024/01/19 04:38:22;;;;;;;64.72;48.53;;;;;;;-4.32;100.00;101450.25;5039971;28;20040;-74
2024/01/19 04:40:48;;;;;;;60.40;49.15;;;;;;;-4.29;100.00;101460.69;5039575;28;20048;-74
2024/01/19 04:43:13;;;;;;;63.33;49.22;;;;;;;-4.35;100.00;101459.69;5053575;28;20224;-75
2024/01/19 04:45:39;;;;;;;67.80;50.30;;;;;;;-4.51;100.00;101453.34;5039262;28;20503;-76
2024/01/19 04:48:04;;;;;;;65.80;51.70;;;;;;;-4.40;100.00;101471.72;5031070;28;20483;-74
2024/01/19 04:50:33;;;;;;;66.15;52.05;;;;;;;-4.48;100.00;101481.97;5042020;28;20099;-76
2024/01/19 04:52:59;;;;;;;20.10;12.70;;;;;;;-4.54;100.00;101474.91;5041781;28;20056;-75
2024/01/19 04:55:24;;;;;;;74.28;54.53;;;;;;;-4.49;100.00;101481.94;5043012;28;20036;-75
2024/01/19 04:57:50;;;;;;;72.00;52.88;;;;;;;-4.55;100.00;101475.78;5028881;28;21209;-75
2024/01/19 05:00:15;;;;;;;69.85;52.75;;;;;;;-4.54;100.00;101487.91;5035828;28;20056;-75
2024/01/19 05:02:41;;;;;;;68.07;51.67;;;;;;;-4.61;100.00;101486.03;5046227;28;20122;-75
2024/01/19 05:05:06;;;;;;;67.00;51.47;;;;;;;-4.56;100.00;101494.78;5041367;28;20217;-75
2024/01/19 05:07:32;;;;;;;68.85;51.60;;;;;;;-4.60;100.00;101493.00;5029334;28;20029;-75
2024/01/19 05:09:57;;;;;;;68.55;52.53;;;;;;;-4.63;100.00;101503.31;5034738;28;20444;-74
2024/01/19 05:12:23;;;;;;;74.38;53.83;;;;;;;-4.63;100.00;101499.84;5039026;28;20039;-74
2024/01/19 05:14:49;;;;;;;74.97;53.28;;;;;;;-4.62;100.00;101499.88;5039323;28;20078;-74
2024/01/19 05:17:14;;;;;;;70.70;54.03;;;;;;;-4.68;100.00;101489.34;5041033;28;20087;-74
2024/01/19 05:19:40;;;;;;;71.78;53.78;;;;;;;-4.61;100.00;101495.53;5027494;28;20033;-74
2024/01/19 05:22:06;;;;;;;66.75;52.42;;;;;;;-4.64;100.00;101504.16;5051369;28;20613;-75
2024/01/19 05:24:32;;;;;;;71.53;52.75;;;;;;;-4.64;100.00;101508.44;5044167;28;20036;-75
2024/01/19 05:26:57;;;;;;;66.72;51.20;;;;;;;-4.68;100.00;101523.13;5033353;28;20100;-74
2024/01/19 05:29:23;;;;;;;71.57;53.85;;;;;;;-4.66;100.00;101513.63;5049868;28;20110;-74
2024/01/19 05:31:48;;;;;;;72.00;53.08;;;;;;;-4.65;100.00;101515.38;5039703;28;20356;-74
2024/01/19 05:34:14;;;;;;;67.75;53.10;;;;;;;-4.66;100.00;101512.75;5045162;28;20435;-74
2024/01/19 05:36:40;;;;;;;67.20;52.58;;;;;;;-4.70;100.00;101517.00;5045336;28;20028;-74
2024/01/19 05:39:07;;;;;;;74.75;56.03;;;;;;;-4.64;100.00;101519.75;5062549;28;20013;-74
2024/01/19 05:41:32;;;;;;;19.63;13.20;;;;;;;-4.66;100.00;101534.41;5049729;28;20020;-74
2024/01/19 05:43:58;;;;;;;23.00;13.02;;;;;;;-4.68;100.00;101538.72;5056131;28;20036;-74
2024/01/19 05:46:23;;;;;;;67.90;52.85;;;;;;;-4.67;100.00;101540.44;5027800;28;20029;-74
2024/01/19 05:48:48;;;;;;;66.13;52.55;;;;;;;-4.66;100.00;101555.19;5024975;28;20434;-74
2024/01/19 05:51:15;;;;;;;71.78;53.88;;;;;;;-4.66;100.00;101554.31;5026445;28;20517;-74
2024/01/19 05:53:40;;;;;;;70.55;55.50;;;;;;;-4.62;100.00;101562.22;5039354;28;20048;-73
2024/01/19 05:56:06;;;;;;;75.97;55.55;;;;;;;-4.65;100.00;101566.44;5038698;28;20108;-73
2024/01/19 05:58:31;;;;;;;67.07;53.60;;;;;;;-4.67;100.00;101568.16;5038403;28;20037;-74
2024/01/19 06:00:57;;;;;;;76.47;56.03;;;;;;;-4.67;100.00;101581.13;5033414;28;20244;-73
2024/01/19 06:03:23;;;;;;;32.78;16.48;;;;;;;-4.78;100.00;101576.56;5026581;28;20056;-73
2024/01/19 06:05:48;;;;;;;67.22;53.30;;;;;;;-4.76;100.00;101581.81;5032607;28;20052;-74
2024/01/19 06:08:13;;;;;;;73.35;54.28;;;;;;;-4.71;100.00;101590.56;5045009;28;20086;-74
2024/01/19 06:10:39;;;;;;;70.60;53.53;;;;;;;-4.69;100.00;101588.00;5040381;28;20220;-74
2024/01/19 06:13:04;;;;;;;76.32;56.47;;;;;;;-4.64;100.00;101595.09;5032194;28;20460;-74
2024/01/19 06:15:32;;;;;;;65.70;54.55;;;;;;;-4.58;100.00;101600.41;5030319;28;20034;-74
2024/01/19 06:17:58;;;;;;;22.42;15.43;;;;;;;-4.54;100.00;101597.03;5039482;28;20032;-73
2024/01/19 06:20:23;;;;;;;64.35;53.10;;;;;;;-4.47;100.00;101604.94;5034043;28;20025;-73
2024/01/19 06:22:48;;;;;;;61.35;50.78;;;;;;;-4.48;100.00;101601.47;5044958;28;20479;-74
2024/01/19 06:25:14;;;;;;;61.42;50.42;;;;;;;-4.43;100.00;101610.28;5045547;28;20044;-74
2024/01/19 06:27:39;;;;;;;58.00;48.83;;;;;;;-4.37;100.00;101615.59;5040475;28;20025;-74
2024/01/19 06:30:06;;;;;;;56.55;47.20;;;;;;;-4.34;100.00;101628.66;5036734;28;20025;-74
2024/01/19 06:32:31;;;;;;;60.03;47.90;;;;;;;-4.33;100.00;101627.81;5044167;28;20116;-74
2024/01/19 06:34:57;;;;;;;57.17;46.42;;;;;;;-4.31;100.00;101625.25;5057750;28;20177;-74
2024/01/19 06:37:22;;;;;;;56.00;46.40;;;;;;;-4.33;100.00;101625.22;5037436;28;20040;-75
2024/01/19 06:39:47;;;;;;;52.78;45.40;;;;;;;-4.22;100.00;101643.66;5048470;28;20029;-75
2024/01/19 06:42:13;;;;;;;52.58;43.72;;;;;;;-4.23;100.00;101643.63;5039571;28;20074;-75
2024/01/19 06:44:43;;;;;;;51.22;42.10;;;;;;;-4.24;100.00;101641.88;5041872;28;20059;-74
2024/01/19 06:47:08;;;;;;;46.92;41.10;;;;;;;-4.24;100.00;101645.34;5042428;28;20017;-74
2024/01/19 06:49:33;;;;;;;50.33;41.47;;;;;;;-4.26;100.00;101657.44;5041192;28;20116;-74
2024/01/19 06:51:59;;;;;;;47.00;41.83;;;;;;;-4.32;100.00;101659.88;5032678;28;20037;-73
2024/01/19 06:54:25;;;;;;;45.97;38.97;;;;;;;-4.33;100.00;101664.22;5044802;28;20051;-74
2024/01/19 06:56:50;;;;;;;45.20;37.78;;;;;;;-4.41;100.00;101665.75;5042122;28;20029;-74
2024/01/19 06:59:16;;;;;;;46.03;38.03;;;;;;;-4.48;100.00;101657.75;5035692;28;20071;-73
2024/01/19 07:01:41;;;;;;;43.30;37.88;;;;;;;-4.47;100.00;101659.50;5039508;28;20486;-74
2024/01/19 07:04:06;;;;;;;42.17;37.20;;;;;;;-4.54;100.00;101664.59;5040526;28;20093;-74
2024/01/19 07:06:33;;;;;;;45.38;37.95;;;;;;;-4.59;100.00;101657.53;5043128;28;20047;-74
2024/01/19 07:08:58;;;;;;;44.78;38.85;;;;;;;-4.61;100.00;101667.00;5040560;28;20140;-73
2024/01/19 07:11:24;;;;;;;46.28;39.28;;;;;;;-4.57;100.00;101681.81;5035447;28;20550;-75
2024/01/19 07:13:49;;;;;;;19.55;11.63;;;;;;;-4.64;100.00;101678.22;5039746;28;20071;-75
2024/01/19 07:16:14;;;;;;;46.63;39.92;;;;;;;-4.54;100.00;101685.38;5038240;28;20483;-73
2024/01/19 07:18:40;;;;;;;43.33;38.75;;;;;;;-4.63;100.00;101669.56;5032693;28;20036;-75
2024/01/19 07:21:05;;;;;;;43.95;38.95;;;;;;;-4.56;100.00;101693.94;5040929;28;20036;-75
2024/01/19 07:23:31;;;;;;;47.53;39.85;;;;;;;-4.51;100.00;101700.16;5042090;28;20055;-75
2024/01/19 07:25:56;;;;;;;47.70;39.35;;;;;;;-4.44;100.00;101701.16;5035200;28;20107;-75
2024/01/19 07:28:22;;;;;;;43.17;37.75;;;;;;;-4.37;100.00;101716.06;5031097;28;20044;-74
2024/01/19 07:30:48;;;;;;;45.90;39.33;;;;;;;-4.44;100.00;101696.84;5033831;28;20443;-75
2024/01/19 07:33:13;;;;;;;40.28;35.97;;;;;;;-4.34;100.00;101714.44;5042119;28;20550;-74
2024/01/19 07:35:39;;;;;;;45.97;38.33;;;;;;;-4.36;100.00;101716.09;5039093;28;20104;-74
2024/01/19 07:38:04;;;;;;;21.63;11.65;;;;;;;-4.40;100.00;101718.59;5038101;28;20040;-74
2024/01/19 07:40:30;;;;;;;42.58;36.80;;;;;;;-4.50;100.00;101712.31;5040614;28;20052;-74
2024/01/19 07:42:55;;;;;;;43.00;36.28;;;;;;;-4.48;100.00;101728.78;5033651;28;20052;-74
2024/01/19 07:45:20;;;;;;;38.97;34.78;;;;;;;-4.58;100.00;101706.91;5033671;28;20036;-73
2024/01/19 07:47:46;;;;;;;39.42;35.00;;;;;;;-4.53;100.00;101726.09;5037872;28;20056;-73
2024/01/19 07:50:11;;;;;;;39.33;34.65;;;;;;;-4.56;100.00;101722.53;5052206;28;20380;-74
2024/01/19 07:52:38;;;;;;;15.30;10.80;;;;;;;-4.56;100.00;101741.59;5039581;28;20029;-74
2024/01/19 07:55:04;;;;;;;41.63;35.08;;;;;;;-4.47;100.00;101732.28;5037505;28;20040;-73
2024/01/19 07:57:30;;;;;;;40.50;36.05;;;;;;;-4.44;100.00;101745.34;5037062;28;20621;-74
2024/01/19 07:59:55;;;;;;;41.67;35.70;;;;;;;-4.38;100.00;101749.00;5039717;28;20130;-74
2024/01/19 08:02:21;;;;;;;43.17;38.53;;;;;;;-4.38;100.00;101753.31;5042364;28;20119;-74
2024/01/19 08:04:46;;;;;;;13.93;11.18;;;;;;;-4.47;100.00;101740.06;5039907;28;20398;-75
2024/01/19 08:07:12;;;;;;;40.47;36.20;;;;;;;-4.39;100.00;101748.94;5039829;28;20041;-75
2024/01/19 08:09:37;;;;;;;39.22;35.08;;;;;;;-4.46;100.00;101750.53;5039034;28;20109;-76
2024/01/19 08:12:03;;;;;;;41.33;36.90;;;;;;;-4.38;100.00;101764.59;5034281;28;20020;-75
2024/01/19 08:14:28;;;;;;;43.10;37.78;;;;;;;-4.36;100.00;101775.00;5042870;28;20021;-75
2024/01/19 08:16:54;;;;;;;40.58;36.05;;;;;;;-4.38;100.00;101758.50;5049992;28;20029;-74
2024/01/19 08:19:19;;;;;;;46.90;38.25;;;;;;;-4.35;100.00;101777.63;5057187;28;20013;-73
2024/01/19 08:21:45;;;;;;;43.08;36.50;;;;;;;-4.34;100.00;101783.72;5055688;28;20096;-74
2024/01/19 08:24:12;;;;;;;41.40;35.92;;;;;;;-4.36;100.00;101773.28;5050920;28;20048;-75
2024/01/19 08:33:22;;;;;;;19.38;9.68;;;;;;;-4.40;100.00;101780.97;5032220;28;20044;-74
2024/01/19 08:35:47;;;;;;;41.38;36.88;;;;;;;-4.45;100.00;101785.19;5039955;28;20044;-74
2024/01/19 08:38:13;;;;;;;40.15;35.80;;;;;;;-4.45;100.00;101785.19;5044050;28;20028;-74
2024/01/19 08:40:39;;;;;;;38.92;34.78;;;;;;;-4.32;100.00;101793.31;5038342;28;20118;-74
2024/01/19 08:43:04;;;;;;;39.42;35.15;;;;;;;-4.30;100.00;101795.97;5043747;28;20037;-73
2024/01/19 08:45:29;;;;;;;40.53;36.28;;;;;;;-4.40;100.00;101776.63;5045064;28;20485;-74
2024/01/19 08:48:02;;;;;;;39.95;35.58;;;;;;;-4.40;100.00;101789.63;5041554;28;20420;-74
2024/01/19 08:50:28;;;;;;;13.32;9.32;;;;;;;-4.35;100.00;101797.53;5040841;28;20032;-74
2024/01/19 08:52:53;;;;;;;39.40;35.10;;;;;;;-4.30;100.00;101809.84;5037892;28;20052;-75
2024/01/19 08:55:20;;;;;;;40.08;35.63;;;;;;;-4.33;100.00;101808.88;5046951;28;20037;-74
2024/01/19 08:57:45;;;;;;;39.35;35.15;;;;;;;-4.27;100.00;101822.00;5046385;28;20044;-74
2024/01/19 09:00:11;;;;;;;13.90;9.38;;;;;;;-4.28;100.00;101817.66;5038905;28;20071;-74
2024/01/19 09:02:37;;;;;;;39.95;33.88;;;;;;;-4.32;100.00;101810.63;5044461;28;20079;-74
2024/01/19 09:05:03;;;;;;;37.08;33.08;;;;;;;-4.24;100.00;101827.28;5045483;28;20079;-75
2024/01/19 09:07:29;;;;;;;38.67;34.13;;;;;;;-4.21;100.00;101835.19;5043035;28;20032;-75
2024/01/19 09:09:54;;;;;;;38.83;34.28;;;;;;;-4.21;100.00;101835.19;5045878;28;20036;-76
2024/01/19 09:12:19;;;;;;;39.17;34.67;;;;;;;-4.17;100.00;101830.94;5040722;28;20100;-74
2024/01/19 09:14:45;;;;;;;40.63;34.85;;;;;;;-4.18;100.00;101836.97;5044041;28;20113;-74
2024/01/19 09:17:10;;;;;;;39.60;34.35;;;;;;;-4.27;100.00;101825.47;5043266;28;20120;-74
2024/01/19 09:19:36;;;;;;;42.15;35.22;;;;;;;-4.14;100.00;101852.69;5043066;28;20159;-74
2024/01/19 09:22:01;;;;;;;18.50;11.73;;;;;;;-4.10;100.00;101862.31;5034688;28;20471;-75
2024/01/19 09:24:27;;;;;;;42.47;34.50;;;;;;;-4.15;100.00;101844.84;5041274;28;20017;-74
2024/01/19 09:26:54;;;;;;;39.35;33.33;;;;;;;-4.03;100.00;101866.84;5042438;28;20594;-75
2024/01/19 09:29:19;;;;;;;39.42;33.63;;;;;;;-3.98;100.00;101869.53;5039980;28;20029;-75
2024/01/19 09:31:46;;;;;;;38.55;34.47;;;;;;;-4.01;100.00;101862.56;5033491;28;20123;-75
2024/01/19 09:34:12;;;;;;;37.92;33.83;;;;;;;-4.02;100.00;101857.31;5044968;28;20528;-75
2024/01/19 09:36:39;;;;;;;40.47;35.28;;;;;;;-3.85;100.00;101884.59;5041534;28;20036;-75
2024/01/19 09:39:06;;;;;;;38.88;33.92;;;;;;;-3.82;100.00;101886.41;5035005;28;20479;-75
2024/01/19 09:41:37;;;;;;;37.58;33.03;;;;;;;-3.77;100.00;101900.41;5035035;28;20048;-74
2024/01/19 09:44:07;;;;;;;40.63;34.30;;;;;;;-3.78;100.00;101883.03;5041633;28;20029;-73
2024/01/19 09:46:50;;;;;;;37.22;32.63;;;;;;;-3.70;100.00;101907.53;5042563;28;20040;-74
2024/01/19 09:49:38;;;;;;;12.05;7.63;;;;;;;-3.66;100.00;101905.88;5039813;28;20040;-74
2024/01/19 09:52:19;;;;;;;40.47;34.08;;;;;;;-3.59;100.00;101908.69;5041698;28;20552;-74
2024/01/19 09:54:44;;;;;;;37.72;33.20;;;;;;;-3.59;100.00;101890.47;5035636;28;20037;-74
2024/01/19 09:57:10;;;;;;;37.95;32.97;;;;;;;-3.49;100.00;101906.28;5039991;28;20450;-74
2024/01/19 09:59:35;;;;;;;36.88;32.88;;;;;;;-3.47;100.00;101894.19;5036902;28;20467;-75
2024/01/19 10:02:01;;;;;;;38.03;33.50;;;;;;;-3.41;100.00;101904.75;5037640;28;20100;-74
2024/01/19 10:04:27;;;;;;;37.03;32.50;;;;;;;-3.39;100.00;101903.03;5038765;28;20078;-75
2024/01/19 10:06:54;;;;;;;38.03;33.75;;;;;;;-3.29;100.00;101912.84;5041525;28;20036;-74
2024/01/19 10:09:23;;;;;;;37.60;33.55;;;;;;;-3.22;100.00;101919.91;5038547;28;20032;-75
2024/01/19 10:11:54;;;;;;;37.65;33.60;;;;;;;-3.27;100.00;101916.34;5042987;28;20238;-75
2024/01/19 10:14:20;;;;;;;36.60;32.33;;;;;;;-3.16;100.00;101925.28;5040299;28;20021;-75
2024/01/19 10:16:50;;;;;;;36.63;32.63;;;;;;;-3.13;100.00;101932.31;5043183;28;20032;-75
2024/01/19 10:19:16;;;;;;;38.60;32.75;;;;;;;-3.02;100.00;101931.66;5042898;28;20032;-75
2024/01/19 10:21:42;;;;;;;38.80;31.48;;;;;;;-2.97;100.00;101933.50;5041545;28;20028;-75
2024/01/19 10:24:11;;;;;;;35.80;32.00;;;;;;;-2.92;100.00;101935.38;5052960;28;20032;-75
2024/01/19 10:26:37;;;;;;;34.88;30.35;;;;;;;-2.93;100.00;101928.38;5043960;28;20031;-75
2024/01/19 10:29:13;;;;;;;41.47;32.13;;;;;;;-2.86;100.00;101932.00;5045374;28;20032;-75
2024/01/19 10:31:43;;;;;;;35.83;31.95;;;;;;;-2.83;100.00;101927.75;5060158;28;20037;-75
2024/01/19 10:34:20;;;;;;;36.72;31.40;;;;;;;-2.70;100.00;101930.63;5044495;28;20060;-75
2024/01/19 10:36:47;;;;;;;34.72;31.13;;;;;;;-2.65;100.00;101937.66;5047379;28;20025;-75
2024/01/19 10:39:22;;;;;;;35.80;30.38;;;;;;;-2.62;100.00;101937.75;5039043;28;20052;-76
2024/01/19 10:41:49;;;;;;;35.13;31.33;;;;;;;-2.57;100.00;101936.09;5043896;28;20037;-75
2024/01/19 10:44:19;;;;;;;38.35;31.52;;;;;;;-2.56;100.00;101929.16;5043278;28;20019;-75
2024/01/19 10:46:45;;;;;;;34.92;29.20;;;;;;;-2.47;100.00;101936.28;5044997;28;20291;-76
2024/01/19 10:49:13;;;;;;;33.45;27.80;;;;;;;-2.46;100.00;101932.84;5041362;28;20080;-76
2024/01/19 10:51:42;;;;;;;36.22;29.30;;;;;;;-2.46;100.00;101936.34;5052283;28;20025;-76
2024/01/19 10:54:10;;;;;;;35.33;31.02;;;;;;;-2.35;100.00;101941.75;5061187;28;20037;-76
2024/01/19 10:56:38;;;;;;;34.15;29.48;;;;;;;-2.33;100.00;101934.84;5072559;28;20024;-76
2024/01/19 10:59:10;;;;;;;36.92;30.58;;;;;;;-2.26;100.00;101941.91;5059252;28;20088;-75
2024/01/19 11:01:35;;;;;;;32.30;28.83;;;;;;;-2.22;100.00;101942.84;5046460;28;20553;-76
2024/01/19 11:04:02;;;;;;;34.92;29.90;;;;;;;-2.16;100.00;101938.66;5038011;28;20043;-76